Pagrindinis puslapis
METAR-TAF:

METAR-TAF

Oro uostai :

Plant City, Florida, Jungtinės Amerikos Valstijos

platuma: 28-00-01N, ilguma: 082-09-51W, Aukštis: 47 m

Dabartinis oras

Ataskaita buvo paskelbta 24 minutes, ne 17:55 UTC
Vėjas 5 kt iš Šiaurės Vakarų
Temperatūra 29°C
Drėgmė 66%
Slėgis 1014 hPa
Matomumas: 16.1 km
Išsisklaidę debesys ne aukštis 3400 ft
Apsiniaukę ne aukštis 4200 ft

METAR: KPCM 171755Z AUTO 31005KT 10SM SCT034 OVC042 29/22 A2994 RMK AO2

Laikas: 14:19 (18:19 UTC)


TAF: trūkstamas

Orai ataskaitas ir orų prognozės (METAR, TAF).

turimą stotys yra geltonos ir raudonos taškus žemėlapyje.

Perkelti pele per norėdami pamatyti stoties vardą.

Tada spustelėkite, norėdami matyti oro stebėjimo ir prognozės.

Norėdami pakeisti žemėlapį: spustelėkite ant žalios mygtukų su juodo kryžiaus žemyn,; žalią mygtuką su brūkšneliu, jei norite nutolinti; arba žalių rodyklių gretimoms žemėlapius.


METAR-TAF: